Time;durP1;ratioP1;P1;durP2;ratioP2;P2;SDS_P1;SDS_P2;PMS_P1;PMS_P2;Temp;Humidity;BMP_temperature;BMP_pressure;BME280_temperature;BME280_humidity;BME280_pressure;Samples;Min_cycle;Max_cycle;Signal;HPM_P1;HPM_P2
2022/04/10 00:01:34;;;;;;;8.40;2.90;;;;;;;8.77;80.83;99150.80;1697342;83;22335;-71
2022/04/10 00:04:01;;;;;;;9.57;4.00;;;;;;;8.76;80.79;99147.84;1689266;82;21060;-71
2022/04/10 00:06:28;;;;;;;5.40;3.97;;;;;;;8.73;80.15;99164.70;1691355;82;21699;-71
2022/04/10 00:08:56;;;;;;;8.27;2.80;;;;;;;8.72;79.89;99169.70;1705571;82;21183;-71
2022/04/10 00:11:24;;;;;;;6.80;3.03;;;;;;;8.69;79.78;99168.28;1689644;82;21750;-71
2022/04/10 00:13:51;;;;;;;4.83;2.73;;;;;;;8.69;79.59;99178.91;1705197;82;21112;-71
2022/04/10 00:16:17;;;;;;;9.00;3.03;;;;;;;8.65;79.47;99167.06;1697828;82;21021;-71
2022/04/10 00:18:45;;;;;;;10.63;5.17;;;;;;;8.63;79.42;99176.27;1686686;84;21097;-71
2022/04/10 00:21:12;;;;;;;10.25;6.10;;;;;;;8.62;79.66;99177.27;1705428;82;21152;-70
2022/04/10 00:23:40;;;;;;;16.63;9.17;;;;;;;8.54;79.86;99178.30;1698245;81;21497;-70
2022/04/10 00:26:07;;;;;;;16.60;7.30;;;;;;;8.44;80.50;99181.35;1700907;82;21815;-70
2022/04/10 00:28:34;;;;;;;15.40;8.47;;;;;;;8.33;80.82;99184.58;1703560;82;21114;-70
2022/04/10 00:31:01;;;;;;;18.97;9.67;;;;;;;8.24;81.23;99195.88;1685975;82;21037;-70
2022/04/10 00:33:27;;;;;;;20.32;9.20;;;;;;;8.17;81.54;99200.35;1694318;82;21265;-71
2022/04/10 00:35:54;;;;;;;20.95;9.48;;;;;;;8.14;81.71;99210.06;1706142;82;21625;-70
2022/04/10 00:38:20;;;;;;;15.72;8.48;;;;;;;8.11;81.71;99210.45;1692210;82;21063;-70
2022/04/10 00:40:48;;;;;;;13.37;7.07;;;;;;;8.06;81.99;99218.19;1706313;82;21039;-70
2022/04/10 00:43:15;;;;;;;10.67;6.00;;;;;;;7.99;82.48;99218.18;1694860;82;21116;-71
2022/04/10 00:45:42;;;;;;;11.30;5.43;;;;;;;7.90;82.65;99222.02;1692691;82;21064;-71
2022/04/10 00:48:10;;;;;;;7.63;4.00;;;;;;;7.83;82.79;99219.84;1692576;82;21107;-71
2022/04/10 00:51:39;;;;;;;3.40;2.90;;;;;;;7.75;82.64;99210.22;1712772;82;21002;-72
2022/04/10 00:53:05;;;;;;;2.73;2.47;;;;;;;7.69;82.55;99211.83;1687206;82;21128;-71
2022/04/10 00:55:34;;;;;;;2.10;1.93;;;;;;;7.67;82.58;99209.07;1700652;82;21529;-71
2022/04/10 00:58:01;;;;;;;2.43;2.23;;;;;;;7.64;82.87;99201.50;1682548;84;21625;-71
2022/04/10 01:00:27;;;;;;;1.53;1.43;;;;;;;7.56;83.29;99195.34;1663918;84;22055;-72
2022/04/10 01:02:53;;;;;;;;;;;;;;;7.46;84.05;99191.40;1677221;84;21065;-72
2022/04/10 01:05:20;;;;;;;2.03;1.93;;;;;;;7.36;84.36;99197.88;1677736;84;20139;-70
2022/04/10 01:07:48;;;;;;;2.37;1.60;;;;;;;7.18;85.33;99206.34;1664528;84;21025;-70
2022/04/10 01:10:15;;;;;;;1.65;1.65;;;;;;;7.13;85.14;99215.89;1666861;84;21125;-71
2022/04/10 01:12:44;;;;;;;2.13;1.93;;;;;;;7.12;85.42;99215.08;1666776;84;21104;-71
2022/04/10 01:15:12;;;;;;;2.47;2.37;;;;;;;7.11;85.61;99229.84;1665642;84;21060;-70
2022/04/10 01:17:44;;;;;;;2.07;1.97;;;;;;;7.07;85.31;99247.95;1667895;84;21572;-72
2022/04/10 01:20:11;;;;;;;2.00;1.90;;;;;;;7.08;85.38;99249.57;1670111;84;21100;-71
2022/04/10 01:22:41;;;;;;;1.50;1.50;;;;;;;7.10;85.01;99255.53;1669183;83;21532;-71
2022/04/10 01:25:11;;;;;;;1.80;1.70;;;;;;;7.13;84.89;99240.55;1678947;84;21117;-71
2022/04/10 01:27:41;;;;;;;1.73;1.73;;;;;;;7.14;84.10;99244.85;1646993;85;21094;-69
2022/04/10 01:30:12;;;;;;;1.47;1.47;;;;;;;7.12;83.63;99256.16;1645015;85;21013;-73
2022/04/10 01:32:40;;;;;;;1.47;1.43;;;;;;;7.07;83.67;99263.84;1683799;84;21030;-71
2022/04/10 01:36:10;;;;;;;2.20;2.00;;;;;;;7.06;82.79;99258.22;1799081;78;22209;-68
2022/04/10 01:38:41;;;;;;;1.87;1.77;;;;;;;6.98;82.02;99270.30;1725064;81;21089;-71
2022/04/10 01:41:13;;;;;;;1.67;1.57;;;;;;;6.94;82.35;99277.80;1701481;83;20995;-69
2022/04/10 01:43:49;;;;;;;1.90;1.80;;;;;;;6.89;82.23;99281.52;1706582;82;20979;-70
2022/04/10 01:46:16;;;;;;;1.83;1.73;;;;;;;6.89;81.75;99279.38;1679793;81;21487;-70
2022/04/10 01:48:43;;;;;;;1.83;1.73;;;;;;;6.86;81.25;99281.10;1675688;84;21100;-71
2022/04/10 01:51:11;;;;;;;2.27;1.87;;;;;;;6.83;80.82;99292.37;1673396;85;21159;-71
2022/04/10 01:53:39;;;;;;;2.03;1.70;;;;;;;6.79;81.24;99289.78;1674280;84;21641;-70
2022/04/10 01:56:08;;;;;;;1.70;1.70;;;;;;;6.74;80.65;99290.88;1673911;85;21059;-71
2022/04/10 01:58:38;;;;;;;2.27;2.17;;;;;;;6.73;80.47;99291.06;1668369;84;21875;-70
2022/04/10 02:01:06;;;;;;;2.20;1.73;;;;;;;6.69;79.45;99299.08;1673939;84;21002;-70
2022/04/10 02:03:35;;;;;;;1.60;1.60;;;;;;;6.67;79.64;99299.26;1692487;83;22078;-71
2022/04/10 02:06:01;;;;;;;1.90;1.80;;;;;;;6.63;79.22;99295.35;1669518;84;21132;-70
2022/04/10 02:08:29;;;;;;;1.60;1.40;;;;;;;6.63;79.14;99304.62;1671371;84;22399;-71
2022/04/10 02:10:58;;;;;;;2.30;2.13;;;;;;;6.64;79.20;99306.24;1660151;84;21551;-71
2022/04/10 02:13:25;;;;;;;2.00;1.90;;;;;;;6.68;79.13;99312.80;1673130;84;21125;-70
2022/04/10 02:15:52;;;;;;;1.63;1.53;;;;;;;6.70;78.85;99316.08;1685014;83;21614;-70
2022/04/10 02:18:18;;;;;;;;;;;;;;;6.71;78.42;99321.70;1676779;84;21038;-71
2022/04/10 02:20:47;;;;;;;2.25;1.35;;;;;;;6.72;78.26;99323.33;1706336;83;20165;-71
2022/04/10 02:23:13;;;;;;;;;;;;;;;6.68;78.10;99333.98;1681078;83;21542;-71
2022/04/10 02:25:41;;;;;;;1.33;1.23;;;;;;;6.67;78.24;99336.33;1679127;84;20155;-71
2022/04/10 02:28:07;;;;;;;1.90;1.55;;;;;;;6.60;78.04;99337.57;1666443;84;21097;-71
2022/04/10 02:30:35;;;;;;;1.67;1.57;;;;;;;6.60;78.29;99339.41;1660741;84;21035;-70
2022/04/10 02:33:02;;;;;;;1.17;1.17;;;;;;;6.59;78.18;99333.78;1678852;84;21144;-68
2022/04/10 02:35:28;;;;;;;;;;;;;;;6.58;78.24;99330.32;1653826;85;21745;-70
2022/04/10 02:37:55;;;;;;;1.52;1.42;;;;;;;6.57;77.99;99343.73;1673670;84;20151;-70
2022/04/10 02:40:21;;;;;;;2.22;2.10;;;;;;;6.48;78.48;99343.05;1648927;84;21065;-71
2022/04/10 02:42:49;;;;;;;1.10;1.07;;;;;;;6.45;78.46;99352.67;1653800;84;21101;-70
2022/04/10 02:45:16;;;;;;;;;;;;;;;6.45;78.55;99359.30;1677344;84;21204;-70
2022/04/10 02:47:42;;;;;;;1.83;1.73;;;;;;;6.46;78.64;99349.52;1693056;84;20210;-68
2022/04/10 02:50:09;;;;;;;2.92;1.82;;;;;;;6.40;78.91;99360.34;1659920;86;21056;-71
2022/04/10 02:52:36;;;;;;;2.00;1.90;;;;;;;6.39;78.95;99358.20;1666190;86;21093;-71
2022/04/10 02:55:04;;;;;;;2.30;2.10;;;;;;;6.35;79.49;99360.91;1649621;86;21142;-69
2022/04/10 02:57:32;;;;;;;1.93;1.83;;;;;;;6.34;79.50;99365.88;1712959;81;21574;-71
2022/04/10 02:59:58;;;;;;;1.77;1.70;;;;;;;6.37;79.60;99371.31;1699046;82;21048;-70
2022/04/10 03:02:24;;;;;;;2.50;2.40;;;;;;;6.37;79.60;99369.48;1688194;83;21077;-70
2022/04/10 03:04:50;;;;;;;2.30;1.67;;;;;;;6.37;79.51;99372.13;1699823;83;20979;-71
2022/04/10 03:07:18;;;;;;;2.40;2.20;;;;;;;6.37;79.72;99374.78;1690056;83;21289;-70
2022/04/10 03:09:47;;;;;;;1.50;1.40;;;;;;;6.36;80.04;99376.28;1684046;83;21695;-70
2022/04/10 03:12:14;;;;;;;1.87;1.77;;;;;;;6.33;80.21;99379.28;1688685;83;21154;-70
2022/04/10 03:14:40;;;;;;;2.10;2.00;;;;;;;5.92;80.58;99310.97;1679971;83;21510;-70
2022/04/10 03:17:08;;;;;;;3.47;1.70;;;;;;;6.27;80.97;99375.55;1694911;83;21094;-70
2022/04/10 03:19:34;;;;;;;2.98;1.98;;;;;;;6.28;80.92;99373.75;1701349;83;21443;-71
2022/04/10 03:22:00;;;;;;;3.75;1.80;;;;;;;6.31;80.93;99378.66;1693377;83;21078;-70
2022/04/10 03:24:27;;;;;;;1.73;1.63;;;;;;;6.30;81.00;99377.84;1668601;83;21121;-69
2022/04/10 03:26:53;;;;;;;2.67;2.08;;;;;;;6.30;81.14;99383.13;1687854;83;21063;-69
2022/04/10 03:29:23;;;;;;;2.03;1.93;;;;;;;6.28;81.29;99383.82;1669785;83;21081;-70
2022/04/10 03:31:49;;;;;;;1.90;1.80;;;;;;;6.27;81.44;99380.03;1656980;85;21063;-70
2022/04/10 03:34:16;;;;;;;1.80;1.70;;;;;;;6.28;81.56;99378.53;1670310;84;21011;-70
2022/04/10 03:36:44;;;;;;;2.63;1.93;;;;;;;6.28;81.62;99377.72;1663558;84;21162;-69
2022/04/10 03:39:11;;;;;;;2.02;1.92;;;;;;;6.27;81.70;99389.29;1675202;84;21131;-71
2022/04/10 03:41:38;;;;;;;2.00;1.90;;;;;;;6.27;81.73;99389.29;1670470;84;21078;-70
2022/04/10 03:44:05;;;;;;;3.87;2.05;;;;;;;6.29;81.82;99393.41;1675596;84;21062;-70
2022/04/10 03:46:31;;;;;;;1.87;1.80;;;;;;;6.32;81.82;99395.67;1671472;84;21121;-70
2022/04/10 03:48:59;;;;;;;2.92;1.50;;;;;;;6.35;81.98;99391.35;1672956;85;21050;-70
2022/04/10 03:51:26;;;;;;;1.90;1.80;;;;;;;6.34;81.98;99393.66;1684177;83;21066;-71
2022/04/10 03:53:52;;;;;;;2.70;2.58;;;;;;;6.32;82.00;99391.70;1676094;83;21561;-71
2022/04/10 03:56:20;;;;;;;1.87;1.63;;;;;;;6.29;82.21;99396.06;1694691;82;21089;-70
2022/04/10 03:58:48;;;;;;;2.17;2.00;;;;;;;6.28;82.43;99404.18;1702691;82;21135;-69
2022/04/10 04:01:15;;;;;;;2.00;1.43;;;;;;;6.30;82.61;99406.14;1684705;84;21049;-70
2022/04/10 04:03:42;;;;;;;3.12;2.45;;;;;;;6.32;82.67;99403.61;1695499;82;21073;-69
2022/04/10 04:06:10;;;;;;;2.30;2.10;;;;;;;6.35;82.43;99411.20;1697731;82;21692;-70
2022/04/10 04:08:36;;;;;;;2.07;1.87;;;;;;;6.31;82.31;99404.64;1699694;82;21157;-71
2022/04/10 04:11:03;;;;;;;2.12;2.00;;;;;;;6.30;82.72;99410.11;1702793;82;21581;-70
2022/04/10 04:13:30;;;;;;;2.27;2.17;;;;;;;6.30;82.72;99412.24;1693438;82;21450;-70
2022/04/10 04:15:58;;;;;;;2.13;2.03;;;;;;;6.32;82.73;99420.81;1686770;82;21055;-70
2022/04/10 04:18:26;;;;;;;2.10;1.97;;;;;;;6.40;82.78;99414.61;1697532;82;21043;-69
2022/04/10 04:20:54;;;;;;;2.20;1.70;;;;;;;6.50;82.63;99423.58;1610343;85;22141;-69
2022/04/10 04:23:22;;;;;;;1.57;1.47;;;;;;;6.58;82.35;99423.50;1687147;82;22203;-70
2022/04/10 04:25:51;;;;;;;2.47;2.37;;;;;;;6.62;82.25;99424.77;1694849;83;21114;-70
2022/04/10 04:28:19;;;;;;;2.50;2.30;;;;;;;6.63;82.34;99425.10;1689657;83;21011;-70
2022/04/10 04:30:45;;;;;;;;;;;;;;;6.64;82.42;99434.67;1689716;84;21114;-70
2022/04/10 04:33:13;;;;;;;2.70;2.60;;;;;;;6.68;82.39;99437.27;1681240;84;20500;-70
2022/04/10 04:35:40;;;;;;;2.73;2.53;;;;;;;6.70;82.11;99439.22;1689454;84;21082;-71
2022/04/10 04:38:07;;;;;;;2.10;2.00;;;;;;;6.75;82.07;99446.63;1686375;83;21028;-71
2022/04/10 04:40:33;;;;;;;2.45;2.30;;;;;;;6.75;81.98;99450.09;1645537;85;21126;-72
2022/04/10 04:42:59;;;;;;;2.55;2.40;;;;;;;6.79;81.84;99459.30;1667376;84;21058;-71
2022/04/10 04:45:27;;;;;;;1.87;1.70;;;;;;;6.81;81.69;99463.91;1664054;84;21539;-70
2022/04/10 04:47:59;;;;;;;1.63;1.53;;;;;;;6.87;81.75;99472.12;1689488;84;21063;-70
2022/04/10 04:50:25;;;;;;;2.22;2.10;;;;;;;6.90;81.37;99473.09;1701403;84;21070;-69
2022/04/10 04:52:52;;;;;;;2.57;1.87;;;;;;;6.87;81.31;99484.86;1691307;84;21066;-69
2022/04/10 04:55:19;;;;;;;2.20;2.00;;;;;;;6.83;81.77;99484.41;1701714;84;21540;-69
2022/04/10 04:57:46;;;;;;;2.58;2.40;;;;;;;6.80;81.43;99494.58;1683793;84;21046;-70
2022/04/10 05:00:14;;;;;;;3.07;2.87;;;;;;;6.75;81.92;99495.11;1693825;84;21273;-70
2022/04/10 05:02:45;;;;;;;2.17;2.07;;;;;;;6.77;82.11;99501.05;1702275;84;22108;-69
2022/04/10 05:05:12;;;;;;;2.83;2.63;;;;;;;6.51;82.10;99453.04;1682921;84;21070;-69
2022/04/10 05:07:39;;;;;;;1.73;1.63;;;;;;;6.94;81.98;99509.61;1697356;84;21468;-71
2022/04/10 05:10:09;;;;;;;1.50;1.40;;;;;;;7.04;81.78;99509.31;1707739;84;21197;-71
2022/04/10 05:12:37;;;;;;;2.10;2.00;;;;;;;7.12;81.12;99505.73;1697978;83;21046;-70
2022/04/10 05:15:08;;;;;;;2.43;2.30;;;;;;;7.14;81.11;99509.87;1685591;84;21645;-70
2022/04/10 05:17:36;;;;;;;3.17;2.47;;;;;;;7.13;81.03;99510.86;1701559;84;21593;-69
2022/04/10 05:20:07;;;;;;;2.47;2.27;;;;;;;7.14;81.09;99512.52;1685762;84;21019;-71
2022/04/10 05:22:36;;;;;;;2.97;2.77;;;;;;;7.15;80.78;99514.14;1686723;84;21095;-71
2022/04/10 05:25:05;;;;;;;2.93;2.43;;;;;;;7.15;80.19;99513.33;1699349;84;21169;-72
2022/04/10 05:27:33;;;;;;;2.10;2.00;;;;;;;7.13;80.38;99521.97;1691914;84;21174;-69
2022/04/10 05:29:59;;;;;;;3.55;3.25;;;;;;;7.16;80.38;99526.40;1705241;84;21068;-70
2022/04/10 05:32:27;;;;;;;2.40;2.30;;;;;;;7.14;80.48;99529.74;1699528;84;21118;-73
2022/04/10 05:34:54;;;;;;;2.58;2.47;;;;;;;7.15;80.93;99523.93;1689461;84;21428;-70
2022/04/10 05:37:20;;;;;;;;;;;;;;;7.08;80.80;99517.21;1656938;84;21028;-71
2022/04/10 05:39:48;;;;;;;2.50;2.40;;;;;;;7.12;80.49;99534.41;1645618;87;20149;-71
2022/04/10 05:42:15;;;;;;;2.80;2.60;;;;;;;7.11;80.96;99534.08;1643169;86;21841;-70
2022/04/10 05:44:42;;;;;;;2.40;2.20;;;;;;;7.18;80.43;99532.84;1622061;87;21167;-70
2022/04/10 05:47:09;;;;;;;;;;;;;;;7.19;80.09;99541.91;1653232;86;21146;-69
2022/04/10 05:49:35;;;;;;;2.40;2.30;;;;;;;7.17;79.87;99532.52;1650666;86;20206;-70
2022/04/10 05:52:02;;;;;;;2.83;2.52;;;;;;;7.10;80.20;99541.72;1644329;85;21031;-72
2022/04/10 05:54:29;;;;;;;2.80;2.53;;;;;;;7.12;80.56;99531.76;1690032;84;22193;-71
2022/04/10 05:56:57;;;;;;;3.40;3.10;;;;;;;7.18;80.56;99542.13;1686656;84;21625;-72
2022/04/10 05:59:23;;;;;;;2.80;2.60;;;;;;;7.25;80.12;99536.88;1701148;84;21033;-71
2022/04/10 06:01:53;;;;;;;2.97;2.83;;;;;;;7.29;79.82;99542.13;1696306;84;21067;-72
2022/04/10 06:04:21;;;;;;;2.80;2.60;;;;;;;7.34;80.03;99549.02;1694998;84;21032;-73
2022/04/10 06:06:49;;;;;;;2.57;2.37;;;;;;;7.46;80.11;99539.59;1696898;84;21007;-73
2022/04/10 06:09:20;;;;;;;2.57;2.43;;;;;;;7.62;79.29;99544.33;1697423;84;21587;-73
2022/04/10 06:11:46;;;;;;;3.47;2.25;;;;;;;7.72;78.68;99547.48;1683104;84;21126;-69
2022/04/10 06:14:13;;;;;;;5.60;2.97;;;;;;;7.79;77.28;99549.70;1704055;84;21054;-72
2022/04/10 06:16:41;;;;;;;2.23;1.93;;;;;;;7.74;77.43;99550.77;1683250;84;21117;-71
2022/04/10 06:19:07;;;;;;;3.12;2.85;;;;;;;7.72;77.72;99550.98;1677971;84;21053;-72
2022/04/10 06:21:36;;;;;;;3.10;2.90;;;;;;;7.74;77.57;99549.44;1692152;84;21019;-78
2022/04/10 06:24:05;;;;;;;1.87;1.87;;;;;;;7.71;76.52;99549.84;1699745;84;21054;-69
2022/04/10 06:26:33;;;;;;;2.30;2.10;;;;;;;7.71;76.14;99547.19;1698211;84;21039;-77
2022/04/10 06:29:00;;;;;;;3.00;2.80;;;;;;;7.68;75.93;99550.20;1699232;84;21506;-69
2022/04/10 06:31:30;;;;;;;3.87;2.43;;;;;;;7.71;76.05;99550.65;1695375;84;21051;-72
2022/04/10 06:33:56;;;;;;;3.37;3.08;;;;;;;7.71;76.12;99549.84;1686378;84;21046;-71
2022/04/10 06:36:23;;;;;;;;;;;;;;;7.70;75.82;99552.16;1704589;84;21781;-67
2022/04/10 06:38:51;;;;;;;4.62;2.52;;;;;;;7.70;75.61;99546.85;1706223;79;20131;-70
2022/04/10 06:41:20;;;;;;;2.30;2.20;;;;;;;7.74;75.75;99545.45;1712120;79;21001;-68
2022/04/10 06:43:47;;;;;;;;;;;;;;;7.89;75.84;99548.05;1682990;80;21356;-71
2022/04/10 06:46:21;;;;;;;3.77;2.33;;;;;;;8.00;74.37;99559.48;1661996;85;20194;-71
2022/04/10 06:48:54;;;;;;;2.27;2.07;;;;;;;8.02;74.58;99566.74;1639245;86;21082;-72
2022/04/10 06:51:21;;;;;;;4.37;2.30;;;;;;;8.10;74.38;99565.30;1627078;86;21451;-72
2022/04/10 06:53:49;;;;;;;2.40;2.30;;;;;;;8.21;74.25;99573.23;1697565;84;21058;-67
2022/04/10 06:56:16;;;;;;;2.53;2.33;;;;;;;8.29;72.64;99575.77;1669083;84;21095;-71
2022/04/10 06:58:43;;;;;;;1.60;1.60;;;;;;;8.35;73.15;99582.96;1698528;84;21442;-72
2022/04/10 07:01:10;;;;;;;2.57;1.90;;;;;;;8.45;71.83;99582.66;1696464;84;21079;-70
2022/04/10 07:03:37;;;;;;;5.93;2.80;;;;;;;8.46;71.58;99586.16;1697451;84;21171;-70
2022/04/10 07:06:05;;;;;;;2.77;1.97;;;;;;;8.46;72.19;99588.81;1692961;83;21079;-72
2022/04/10 07:08:37;;;;;;;1.93;1.83;;;;;;;8.53;72.00;99594.97;1697424;84;21153;-70
2022/04/10 07:11:03;;;;;;;2.50;2.30;;;;;;;8.61;71.39;99601.48;1688775;84;21105;-72
2022/04/10 07:13:31;;;;;;;2.57;2.37;;;;;;;8.65;70.61;99600.59;1699837;84;21169;-70
2022/04/10 07:15:58;;;;;;;2.50;2.30;;;;;;;8.62;70.13;99608.42;1701823;84;21102;-71
2022/04/10 07:18:26;;;;;;;2.47;2.27;;;;;;;8.62;69.73;99606.28;1697277;82;21106;-71
2022/04/10 07:20:54;;;;;;;2.33;2.17;;;;;;;8.63;69.75;99613.25;1695215;84;21008;-71
2022/04/10 07:23:45;;;;;;;2.50;2.30;;;;;;;8.56;70.06;99608.69;1701663;84;21534;-70
2022/04/10 07:26:16;;;;;;;5.13;2.20;;;;;;;8.55;70.92;99616.84;1692141;84;21479;-71
2022/04/10 07:28:45;;;;;;;4.37;2.87;;;;;;;8.61;72.23;99615.25;1694017;84;21109;-69
2022/04/10 07:31:11;;;;;;;3.77;3.47;;;;;;;8.75;71.49;99615.67;1700661;84;21055;-69
2022/04/10 07:33:39;;;;;;;3.37;3.17;;;;;;;8.85;70.30;99624.11;1683077;84;21062;-69
2022/04/10 07:36:10;;;;;;;2.83;2.63;;;;;;;8.93;69.81;99627.15;1646686;86;21105;-69
2022/04/10 07:38:38;;;;;;;1.87;1.77;;;;;;;8.95;68.58;99627.77;1654401;86;21106;-68
2022/04/10 07:41:06;;;;;;;4.63;2.80;;;;;;;8.90;69.32;99634.17;1662681;86;21105;-71
2022/04/10 07:43:36;;;;;;;3.67;3.33;;;;;;;8.93;70.82;99632.46;1661342;86;21562;-71
2022/04/10 07:48:50;;;;;;;5.83;3.47;;;;;;;9.06;71.60;99640.52;1681495;85;20181;-69
2022/04/10 07:51:18;;;;;;;3.40;2.90;;;;;;;9.15;71.22;99642.00;1621526;86;21910;-70
2022/04/10 07:53:54;;;;;;;2.43;2.27;;;;;;;9.20;71.09;99637.41;1676964;84;21600;-72
2022/04/10 07:56:21;;;;;;;3.40;3.20;;;;;;;9.26;71.91;99643.78;1684538;85;22371;-70
2022/04/10 07:58:49;;;;;;;5.67;3.40;;;;;;;9.27;71.46;99646.25;1651932;85;21091;-71
2022/04/10 08:01:32;;;;;;;3.90;2.87;;;;;;;9.21;71.34;99644.88;1653451;85;21078;-72
2022/04/10 08:04:00;;;;;;;3.83;3.40;;;;;;;9.18;71.29;99639.97;1684038;84;21190;-72
2022/04/10 08:06:40;;;;;;;3.13;2.93;;;;;;;9.18;71.02;99639.97;1676315;84;21119;-70
2022/04/10 08:09:08;;;;;;;2.83;2.63;;;;;;;9.18;70.87;99646.09;1680347;84;21106;-71
2022/04/10 08:11:34;;;;;;;3.47;3.25;;;;;;;9.24;70.79;99645.30;1681609;82;21022;-71
2022/04/10 08:14:01;;;;;;;3.50;3.23;;;;;;;9.29;70.48;99644.22;1702744;82;21102;-71
2022/04/10 08:16:27;;;;;;;3.83;3.58;;;;;;;9.26;70.44;99651.77;1706144;82;21054;-72
2022/04/10 08:18:53;;;;;;;3.55;3.30;;;;;;;9.20;70.13;99649.38;1698570;82;21133;-71
2022/04/10 08:21:22;;;;;;;3.40;3.20;;;;;;;9.06;70.25;99654.30;1704985;82;21684;-72
2022/04/10 08:23:50;;;;;;;3.97;3.50;;;;;;;8.95;70.90;99650.36;1706397;82;21042;-72
2022/04/10 08:26:16;;;;;;;5.70;3.77;;;;;;;8.93;71.47;99652.40;1699912;82;21538;-72
2022/04/10 08:28:42;;;;;;;3.67;3.37;;;;;;;8.98;71.38;99653.94;1704237;82;21262;-71
2022/04/10 08:31:10;;;;;;;4.62;4.22;;;;;;;9.07;70.70;99655.95;1698554;82;21043;-73
2022/04/10 08:33:37;;;;;;;3.73;3.43;;;;;;;9.04;70.98;99659.83;1705569;82;21045;-72
2022/04/10 08:36:05;;;;;;;3.73;3.53;;;;;;;9.07;70.53;99663.92;1699112;82;21025;-72
2022/04/10 08:38:31;;;;;;;4.58;3.72;;;;;;;9.05;70.49;99662.79;1699744;82;21129;-72
2022/04/10 08:41:02;;;;;;;3.47;3.27;;;;;;;9.07;70.31;99658.09;1697889;82;21532;-71
2022/04/10 08:43:30;;;;;;;4.50;3.67;;;;;;;9.11;70.18;99665.17;1701888;82;21055;-73
2022/04/10 08:45:57;;;;;;;4.53;4.25;;;;;;;9.07;69.61;99658.09;1700066;82;21079;-72
2022/04/10 08:48:28;;;;;;;6.70;3.40;;;;;;;9.03;69.83;99664.01;1693779;82;21056;-72
2022/04/10 08:50:59;;;;;;;4.23;3.93;;;;;;;9.09;69.59;99665.36;1698888;82;21081;-71
2022/04/10 08:53:26;;;;;;;4.17;3.93;;;;;;;9.21;69.29;99660.34;1697142;82;21058;-72
2022/04/10 08:55:54;;;;;;;3.40;3.23;;;;;;;9.26;68.90;99659.73;1692639;82;21061;-72
2022/04/10 08:58:22;;;;;;;3.10;2.90;;;;;;;9.30;69.04;99663.13;1676926;84;21684;-72
2022/04/10 09:00:51;;;;;;;2.37;2.27;;;;;;;9.30;67.47;99671.11;1674929;84;21002;-72
2022/04/10 09:03:19;;;;;;;3.17;2.83;;;;;;;9.26;67.55;99667.20;1679927;84;21029;-74
2022/04/10 09:06:04;;;;;;;4.23;2.73;;;;;;;9.18;66.90;99662.57;1676622;84;21074;-72
2022/04/10 09:08:33;;;;;;;2.90;2.80;;;;;;;9.02;66.76;99660.50;1640144;85;21074;-70
2022/04/10 09:11:08;;;;;;;3.30;2.97;;;;;;;8.90;67.33;99675.37;1678063;84;21146;-71
2022/04/10 09:13:48;;;;;;;2.42;2.33;;;;;;;8.93;67.25;99672.33;1671582;84;21083;-72
2022/04/10 09:16:23;;;;;;;2.33;2.13;;;;;;;9.02;67.36;99679.12;1674957;84;21389;-70
2022/04/10 09:19:01;;;;;;;3.02;2.83;;;;;;;8.72;65.83;99613.39;1679470;84;21617;-72
2022/04/10 09:21:33;;;;;;;2.23;2.03;;;;;;;9.13;65.95;99678.58;1677000;84;21040;-70
2022/04/10 09:24:04;;;;;;;2.77;2.57;;;;;;;9.03;64.68;99681.29;1671875;84;21070;-71
2022/04/10 09:26:46;;;;;;;3.03;2.50;;;;;;;8.97;64.46;99686.88;1677829;84;21676;-72
2022/04/10 09:29:18;;;;;;;2.13;1.97;;;;;;;8.91;64.92;99678.32;1681555;83;21083;-70
2022/04/10 09:31:47;;;;;;;3.00;2.77;;;;;;;8.92;65.73;99677.31;1669012;84;21749;-70
2022/04/10 09:34:21;;;;;;;3.60;3.27;;;;;;;8.97;65.39;99677.56;1690182;82;21120;-72
2022/04/10 09:37:00;;;;;;;2.73;2.53;;;;;;;9.00;65.45;99677.16;1690601;82;21088;-74
2022/04/10 09:39:36;;;;;;;2.77;2.60;;;;;;;8.92;64.91;99666.69;1705738;82;21002;-72
2022/04/10 09:42:09;;;;;;;3.62;3.33;;;;;;;8.96;65.32;99672.73;1702233;82;21158;-70
2022/04/10 09:44:40;;;;;;;3.37;3.17;;;;;;;9.02;65.48;99668.48;1696916;82;21467;-71
2022/04/10 09:47:09;;;;;;;3.57;2.90;;;;;;;9.13;65.29;99674.59;1693273;82;21605;-69
2022/04/10 09:49:41;;;;;;;2.90;2.70;;;;;;;9.27;64.64;99666.72;1709788;82;21070;-72
2022/04/10 09:52:15;;;;;;;1.83;1.67;;;;;;;9.45;64.00;99674.16;1702954;82;21106;-72
2022/04/10 09:54:48;;;;;;;2.63;2.43;;;;;;;9.56;62.32;99669.61;1711685;82;21588;-72
2022/04/10 09:57:18;;;;;;;2.33;2.13;;;;;;;9.58;61.38;99671.55;1699590;82;21133;-72
2022/04/10 09:59:49;;;;;;;2.37;2.17;;;;;;;9.55;61.33;99675.45;1698569;82;21037;-70
2022/04/10 10:02:25;;;;;;;2.57;2.37;;;;;;;9.55;61.77;99666.13;1706429;82;21042;-69
2022/04/10 10:04:56;;;;;;;2.07;1.97;;;;;;;9.64;61.66;99669.95;1709143;82;21047;-71
2022/04/10 10:07:22;;;;;;;1.97;1.73;;;;;;;9.74;61.77;99663.23;1706211;82;21506;-71
2022/04/10 10:09:51;;;;;;;2.33;2.20;;;;;;;9.85;61.41;99668.99;1703482;82;21046;-71
2022/04/10 10:12:18;;;;;;;3.33;2.40;;;;;;;9.93;61.67;99672.30;1698386;82;21554;-70
2022/04/10 10:14:46;;;;;;;2.47;2.27;;;;;;;10.00;61.06;99669.67;1701291;82;21109;-74
2022/04/10 10:17:14;;;;;;;2.33;2.13;;;;;;;10.04;60.50;99670.07;1702381;82;21383;-73
2022/04/10 10:19:43;;;;;;;2.20;2.00;;;;;;;10.02;60.68;99672.11;1696823;82;21063;-71
2022/04/10 10:22:15;;;;;;;1.80;1.70;;;;;;;10.01;60.63;99671.82;1703270;82;21166;-71
2022/04/10 10:25:07;;;;;;;1.97;1.70;;;;;;;9.98;61.24;99675.69;1702335;82;21594;-72
2022/04/10 10:28:20;;;;;;;2.40;2.20;;;;;;;9.99;61.38;99675.20;1701362;82;21094;-71
2022/04/10 10:31:12;;;;;;;2.70;2.47;;;;;;;10.00;61.70;99679.00;1703375;82;21149;-71
2022/04/10 10:33:51;;;;;;;2.40;2.20;;;;;;;9.94;61.91;99679.29;1700681;82;20995;-72
2022/04/10 10:36:29;;;;;;;;;;;;;;;9.91;62.10;99683.67;1695581;82;21044;-68
2022/04/10 10:38:58;;;;;;;2.45;2.35;;;;;;;9.89;62.17;99675.58;1707621;82;20135;-70
2022/04/10 10:41:30;;;;;;;2.07;1.57;;;;;;;9.79;62.79;99683.92;1698136;82;21201;-68
2022/04/10 10:44:17;;;;;;;2.33;2.23;;;;;;;9.79;63.51;99685.25;1703185;82;21076;-73
2022/04/10 10:47:00;;;;;;;2.30;2.00;;;;;;;9.81;62.57;99683.73;1697283;82;21181;-70
2022/04/10 10:49:31;;;;;;;1.80;1.70;;;;;;;9.73;61.23;99686.86;1703879;82;21379;-70
2022/04/10 10:52:02;;;;;;;2.17;1.90;;;;;;;9.65;61.44;99685.72;1705684;82;21043;-71
2022/04/10 10:54:34;;;;;;;1.97;1.87;;;;;;;9.67;61.35;99688.19;1702464;82;21316;-70
2022/04/10 10:57:41;;;;;;;5.33;2.23;;;;;;;9.31;61.66;99645.36;1705858;82;21066;-71
2022/04/10 11:00:18;;;;;;;2.83;2.63;;;;;;;9.59;61.55;99698.49;1699833;82;21605;-72
2022/04/10 11:02:53;;;;;;;4.17;2.52;;;;;;;9.45;62.15;99694.11;1699153;82;21149;-70
2022/04/10 11:05:29;;;;;;;4.27;2.97;;;;;;;9.36;63.22;99694.77;1700139;82;21524;-73
2022/04/10 11:08:09;;;;;;;;;;;;;;;9.35;64.57;99695.80;1687192;82;21161;-70
2022/04/10 11:10:52;;;;;;;2.40;2.10;;;;;;;9.30;65.15;99696.89;1702995;82;20266;-73
2022/04/10 11:13:20;;;;;;;2.20;2.10;;;;;;;9.18;66.23;99696.63;1701967;82;21633;-71
2022/04/10 11:15:49;;;;;;;5.90;1.92;;;;;;;9.18;65.43;99692.62;1708128;82;21666;-72
2022/04/10 11:18:30;;;;;;;3.27;2.20;;;;;;;9.06;61.13;99697.67;1700413;82;21058;-69
2022/04/10 11:21:14;;;;;;;3.07;2.00;;;;;;;8.97;60.87;99696.17;1704488;82;21512;-73
2022/04/10 11:23:45;;;;;;;1.57;1.53;;;;;;;8.86;60.84;99696.70;1701551;82;21110;-70
2022/04/10 11:26:19;;;;;;;1.40;1.10;;;;;;;8.74;60.80;99693.24;1700342;82;21073;-68
2022/04/10 11:29:08;;;;;;;1.33;1.20;;;;;;;8.62;61.36;99713.36;1698877;82;21406;-70
2022/04/10 11:31:42;;;;;;;2.80;1.70;;;;;;;8.47;61.54;99705.45;1700736;82;21097;-70
2022/04/10 11:34:14;;;;;;;1.43;1.33;;;;;;;8.39;60.88;99705.05;1709415;82;21507;-70
2022/04/10 11:36:52;;;;;;;1.00;0.90;;;;;;;8.36;61.46;99698.80;1701751;82;21067;-70
2022/04/10 11:39:35;;;;;;;1.23;1.03;;;;;;;8.36;59.89;99698.80;1703354;82;21003;-70
2022/04/10 11:42:07;;;;;;;1.90;1.60;;;;;;;8.38;60.38;99699.44;1700795;82;21547;-72
2022/04/10 11:44:38;;;;;;;1.17;1.07;;;;;;;8.45;61.04;99704.02;1709762;82;21573;-72
2022/04/10 11:47:12;;;;;;;1.20;1.10;;;;;;;8.51;61.57;99704.57;1700129;82;20987;-71
2022/04/10 11:49:38;;;;;;;1.00;0.97;;;;;;;8.57;59.16;99701.17;1703926;82;21106;-72
2022/04/10 11:52:07;;;;;;;1.77;1.20;;;;;;;8.64;58.94;99700.70;1698029;82;21641;-72
2022/04/10 11:54:37;;;;;;;1.03;0.97;;;;;;;8.71;60.51;99699.44;1696862;82;21630;-73
2022/04/10 11:57:08;;;;;;;2.67;1.10;;;;;;;8.80;58.93;99692.14;1700752;82;21098;-70
2022/04/10 11:59:43;;;;;;;1.10;0.93;;;;;;;8.92;57.65;99691.94;1703011;82;21078;-72